sensor_id;sensor_type;location;lat;lon;timestamp;pressure;altitude;pressure_sealevel;temperature
19196;BMP280;9730;48.926;11.376;2022-08-25T00:01:36;97519.88;;;15.98
19196;BMP280;9730;48.926;11.376;2022-08-25T00:04:04;97521.00;;;15.94
19196;BMP280;9730;48.926;11.376;2022-08-25T00:06:31;97518.56;;;16.05
19196;BMP280;9730;48.926;11.376;2022-08-25T00:08:59;97509.41;;;15.91
19196;BMP280;9730;48.926;11.376;2022-08-25T00:11:28;97515.72;;;15.97
19196;BMP280;9730;48.926;11.376;2022-08-25T00:13:57;97508.06;;;15.97
19196;BMP280;9730;48.926;11.376;2022-08-25T00:16:26;97505.03;;;16.05
19196;BMP280;9730;48.926;11.376;2022-08-25T00:18:55;97508.56;;;16.15
19196;BMP280;9730;48.926;11.376;2022-08-25T00:21:23;97502.47;;;16.42
19196;BMP280;9730;48.926;11.376;2022-08-25T00:23:50;97495.44;;;16.21
19196;BMP280;9730;48.926;11.376;2022-08-25T00:26:18;97504.03;;;16.07
19196;BMP280;9730;48.926;11.376;2022-08-25T00:28:44;97509.50;;;15.89
19196;BMP280;9730;48.926;11.376;2022-08-25T00:31:13;97513.69;;;15.78
19196;BMP280;9730;48.926;11.376;2022-08-25T00:33:41;97516.13;;;15.79
19196;BMP280;9730;48.926;11.376;2022-08-25T00:36:07;97506.84;;;16.15
19196;BMP280;9730;48.926;11.376;2022-08-25T00:38:36;97496.59;;;16.17
19196;BMP280;9730;48.926;11.376;2022-08-25T00:41:03;97505.28;;;16.50
19196;BMP280;9730;48.926;11.376;2022-08-25T00:43:35;97502.53;;;16.53
19196;BMP280;9730;48.926;11.376;2022-08-25T00:46:11;97501.88;;;16.26
19196;BMP280;9730;48.926;11.376;2022-08-25T00:48:40;97507.66;;;16.16
19196;BMP280;9730;48.926;11.376;2022-08-25T00:51:09;97505.25;;;16.02
19196;BMP280;9730;48.926;11.376;2022-08-25T00:53:38;97496.69;;;15.91
19196;BMP280;9730;48.926;11.376;2022-08-25T00:56:05;97500.28;;;15.88
19196;BMP280;9730;48.926;11.376;2022-08-25T00:58:34;97500.47;;;15.85
19196;BMP280;9730;48.926;11.376;2022-08-25T01:01:01;97502.28;;;15.83
19196;BMP280;9730;48.926;11.376;2022-08-25T01:03:29;97504.13;;;15.56
19196;BMP280;9730;48.926;11.376;2022-08-25T01:05:58;97503.50;;;15.78
19196;BMP280;9730;48.926;11.376;2022-08-25T01:08:27;97504.03;;;15.83
19196;BMP280;9730;48.926;11.376;2022-08-25T01:10:55;97502.50;;;15.80
19196;BMP280;9730;48.926;11.376;2022-08-25T01:13:27;97506.06;;;15.65
19196;BMP280;9730;48.926;11.376;2022-08-25T01:15:58;97502.13;;;15.23
19196;BMP280;9730;48.926;11.376;2022-08-25T01:18:25;97496.28;;;15.47
19196;BMP280;9730;48.926;11.376;2022-08-25T01:20:55;97496.19;;;15.86
19196;BMP280;9730;48.926;11.376;2022-08-25T01:23:22;97485.81;;;16.01
19196;BMP280;9730;48.926;11.376;2022-08-25T01:25:54;97497.41;;;15.93
19196;BMP280;9730;48.926;11.376;2022-08-25T01:28:22;97492.00;;;15.97
19196;BMP280;9730;48.926;11.376;2022-08-25T01:30:49;97488.25;;;15.78
19196;BMP280;9730;48.926;11.376;2022-08-25T01:33:17;97500.16;;;15.52
19196;BMP280;9730;48.926;11.376;2022-08-25T01:35:44;97493.44;;;15.64
19196;BMP280;9730;48.926;11.376;2022-08-25T01:38:12;97484.59;;;15.69
19196;BMP280;9730;48.926;11.376;2022-08-25T01:40:40;97482.38;;;15.65
19196;BMP280;9730;48.926;11.376;2022-08-25T01:43:15;97491.53;;;15.55
19196;BMP280;9730;48.926;11.376;2022-08-25T01:45:45;97475.44;;;15.54
19196;BMP280;9730;48.926;11.376;2022-08-25T01:48:13;97479.09;;;15.63
19196;BMP280;9730;48.926;11.376;2022-08-25T01:50:40;97480.03;;;15.62
19196;BMP280;9730;48.926;11.376;2022-08-25T01:53:16;97483.69;;;15.58
19196;BMP280;9730;48.926;11.376;2022-08-25T01:55:43;97488.03;;;15.68
19196;BMP280;9730;48.926;11.376;2022-08-25T01:58:27;97478.41;;;15.73
19196;BMP280;9730;48.926;11.376;2022-08-25T02:00:56;97484.47;;;15.95
19196;BMP280;9730;48.926;11.376;2022-08-25T02:03:24;97474.41;;;15.94
19196;BMP280;9730;48.926;11.376;2022-08-25T02:05:51;97474.84;;;15.88
19196;BMP280;9730;48.926;11.376;2022-08-25T02:08:19;97476.75;;;15.85
19196;BMP280;9730;48.926;11.376;2022-08-25T02:10:47;97481.53;;;15.64
19196;BMP280;9730;48.926;11.376;2022-08-25T02:13:14;97483.47;;;15.48
19196;BMP280;9730;48.926;11.376;2022-08-25T02:15:42;97482.84;;;15.33
19196;BMP280;9730;48.926;11.376;2022-08-25T02:18:10;97489.13;;;15.27
19196;BMP280;9730;48.926;11.376;2022-08-25T02:20:37;97493.41;;;15.27
19196;BMP280;9730;48.926;11.376;2022-08-25T02:23:04;97489.56;;;15.34
19196;BMP280;9730;48.926;11.376;2022-08-25T02:25:32;97493.22;;;15.54
19196;BMP280;9730;48.926;11.376;2022-08-25T02:27:59;97489.56;;;15.71
19196;BMP280;9730;48.926;11.376;2022-08-25T02:30:26;97481.44;;;15.78
19196;BMP280;9730;48.926;11.376;2022-08-25T02:32:52;97489.25;;;15.88
19196;BMP280;9730;48.926;11.376;2022-08-25T02:35:19;97492.84;;;15.73
19196;BMP280;9730;48.926;11.376;2022-08-25T02:37:45;97481.75;;;15.61
19196;BMP280;9730;48.926;11.376;2022-08-25T02:40:12;97481.47;;;15.53
19196;BMP280;9730;48.926;11.376;2022-08-25T02:42:40;97478.28;;;15.50
19196;BMP280;9730;48.926;11.376;2022-08-25T02:45:07;97476.16;;;15.56
19196;BMP280;9730;48.926;11.376;2022-08-25T02:47:33;97465.38;;;15.53
19196;BMP280;9730;48.926;11.376;2022-08-25T02:50:01;97457.63;;;15.54
19196;BMP280;9730;48.926;11.376;2022-08-25T02:52:28;97468.22;;;15.61
19196;BMP280;9730;48.926;11.376;2022-08-25T02:54:54;97455.19;;;15.53
19196;BMP280;9730;48.926;11.376;2022-08-25T02:57:21;97456.94;;;15.77
19196;BMP280;9730;48.926;11.376;2022-08-25T02:59:48;97455.41;;;15.87
19196;BMP280;9730;48.926;11.376;2022-08-25T03:02:16;97461.84;;;15.17
19196;BMP280;9730;48.926;11.376;2022-08-25T03:04:42;97460.59;;;14.97
19196;BMP280;9730;48.926;11.376;2022-08-25T03:07:09;97452.09;;;14.72
19196;BMP280;9730;48.926;11.376;2022-08-25T03:09:37;97455.53;;;14.71
19196;BMP280;9730;48.926;11.376;2022-08-25T03:12:04;97457.59;;;14.52
19196;BMP280;9730;48.926;11.376;2022-08-25T03:14:31;97457.72;;;14.63
19196;BMP280;9730;48.926;11.376;2022-08-25T03:16:58;97453.59;;;14.75
19196;BMP280;9730;48.926;11.376;2022-08-25T03:19:25;97453.66;;;14.87
19196;BMP280;9730;48.926;11.376;2022-08-25T03:21:51;97453.78;;;14.98
19196;BMP280;9730;48.926;11.376;2022-08-25T03:24:20;97451.03;;;15.01
19196;BMP280;9730;48.926;11.376;2022-08-25T03:26:47;97453.50;;;15.15
19196;BMP280;9730;48.926;11.376;2022-08-25T03:29:18;97444.97;;;15.16
19196;BMP280;9730;48.926;11.376;2022-08-25T03:31:45;97443.34;;;15.15
19196;BMP280;9730;48.926;11.376;2022-08-25T03:34:14;97456.03;;;15.15
19196;BMP280;9730;48.926;11.376;2022-08-25T03:36:42;97462.47;;;15.20
19196;BMP280;9730;48.926;11.376;2022-08-25T03:39:09;97452.53;;;14.91
19196;BMP280;9730;48.926;11.376;2022-08-25T03:41:36;97455.44;;;14.73
19196;BMP280;9730;48.926;11.376;2022-08-25T03:44:04;97457.50;;;14.54
19196;BMP280;9730;48.926;11.376;2022-08-25T03:46:33;97452.41;;;14.80
19196;BMP280;9730;48.926;11.376;2022-08-25T03:49:01;97448.19;;;14.93
19196;BMP280;9730;48.926;11.376;2022-08-25T03:51:32;97446.69;;;15.03
19196;BMP280;9730;48.926;11.376;2022-08-25T03:53:59;97441.53;;;15.17
19196;BMP280;9730;48.926;11.376;2022-08-25T03:56:26;97445.97;;;15.13
19196;BMP280;9730;48.926;11.376;2022-08-25T03:58:53;97445.94;;;15.01
19196;BMP280;9730;48.926;11.376;2022-08-25T04:01:20;97443.31;;;15.02
19196;BMP280;9730;48.926;11.376;2022-08-25T04:03:46;97441.34;;;15.20
19196;BMP280;9730;48.926;11.376;2022-08-25T04:06:15;97433.91;;;15.17
19196;BMP280;9730;48.926;11.376;2022-08-25T04:08:43;97431.25;;;15.06
19196;BMP280;9730;48.926;11.376;2022-08-25T04:11:11;97426.56;;;15.00
19196;BMP280;9730;48.926;11.376;2022-08-25T04:13:39;97432.56;;;15.11
19196;BMP280;9730;48.926;11.376;2022-08-25T04:16:09;97433.16;;;15.02
19196;BMP280;9730;48.926;11.376;2022-08-25T04:18:37;97430.09;;;14.85
19196;BMP280;9730;48.926;11.376;2022-08-25T04:21:05;97434.88;;;14.89
19196;BMP280;9730;48.926;11.376;2022-08-25T04:23:33;97442.53;;;15.14
19196;BMP280;9730;48.926;11.376;2022-08-25T04:26:01;97436.75;;;15.12
19196;BMP280;9730;48.926;11.376;2022-08-25T04:28:28;97434.63;;;15.19
19196;BMP280;9730;48.926;11.376;2022-08-25T04:30:54;97441.03;;;15.24
19196;BMP280;9730;48.926;11.376;2022-08-25T04:33:21;97437.81;;;15.22
19196;BMP280;9730;48.926;11.376;2022-08-25T04:35:47;97449.63;;;14.97
19196;BMP280;9730;48.926;11.376;2022-08-25T04:38:14;97451.66;;;14.66
19196;BMP280;9730;48.926;11.376;2022-08-25T04:40:41;97454.59;;;14.60
19196;BMP280;9730;48.926;11.376;2022-08-25T04:43:09;97446.56;;;14.92
19196;BMP280;9730;48.926;11.376;2022-08-25T04:45:37;97456.72;;;14.92
19196;BMP280;9730;48.926;11.376;2022-08-25T04:48:04;97448.41;;;15.29
19196;BMP280;9730;48.926;11.376;2022-08-25T04:50:30;97450.72;;;15.32
19196;BMP280;9730;48.926;11.376;2022-08-25T04:52:58;97450.00;;;15.42
19196;BMP280;9730;48.926;11.376;2022-08-25T04:55:25;97450.22;;;15.27
19196;BMP280;9730;48.926;11.376;2022-08-25T04:57:52;97452.25;;;15.22
19196;BMP280;9730;48.926;11.376;2022-08-25T05:00:20;97457.34;;;15.08
19196;BMP280;9730;48.926;11.376;2022-08-25T05:02:46;97461.59;;;14.95
19196;BMP280;9730;48.926;11.376;2022-08-25T05:05:13;97460.16;;;14.91
19196;BMP280;9730;48.926;11.376;2022-08-25T05:07:40;97463.09;;;14.85
19196;BMP280;9730;48.926;11.376;2022-08-25T05:10:07;97464.06;;;15.09
19196;BMP280;9730;48.926;11.376;2022-08-25T05:12:33;97475.13;;;15.08
19196;BMP280;9730;48.926;11.376;2022-08-25T05:15:00;97470.44;;;15.28
19196;BMP280;9730;48.926;11.376;2022-08-25T05:17:48;97465.03;;;15.33
19196;BMP280;9730;48.926;11.376;2022-08-25T05:20:14;97454.97;;;15.19
19196;BMP280;9730;48.926;11.376;2022-08-25T05:22:43;97453.31;;;15.18
19196;BMP280;9730;48.926;11.376;2022-08-25T05:25:11;97447.38;;;15.43
19196;BMP280;9730;48.926;11.376;2022-08-25T05:27:38;97444.63;;;15.59
19196;BMP280;9730;48.926;11.376;2022-08-25T05:30:06;97435.47;;;15.81
19196;BMP280;9730;48.926;11.376;2022-08-25T05:32:33;97441.16;;;15.72
19196;BMP280;9730;48.926;11.376;2022-08-25T05:35:01;97433.84;;;15.68
19196;BMP280;9730;48.926;11.376;2022-08-25T05:37:27;97424.09;;;15.74
19196;BMP280;9730;48.926;11.376;2022-08-25T05:39:54;97428.34;;;15.74
19196;BMP280;9730;48.926;11.376;2022-08-25T05:42:20;97428.16;;;15.52
19196;BMP280;9730;48.926;11.376;2022-08-25T05:44:47;97424.91;;;15.75
19196;BMP280;9730;48.926;11.376;2022-08-25T05:47:14;97421.63;;;15.85
19196;BMP280;9730;48.926;11.376;2022-08-25T05:49:40;97427.41;;;15.87
19196;BMP280;9730;48.926;11.376;2022-08-25T05:52:08;97432.31;;;15.78
19196;BMP280;9730;48.926;11.376;2022-08-25T05:54:35;97427.41;;;15.99
19196;BMP280;9730;48.926;11.376;2022-08-25T05:57:01;97428.34;;;16.22
19196;BMP280;9730;48.926;11.376;2022-08-25T05:59:28;97428.28;;;16.11
19196;BMP280;9730;48.926;11.376;2022-08-25T06:01:55;97426.88;;;15.94
19196;BMP280;9730;48.926;11.376;2022-08-25T06:04:39;97426.00;;;15.83
19196;BMP280;9730;48.926;11.376;2022-08-25T06:07:06;97425.94;;;16.08
19196;BMP280;9730;48.926;11.376;2022-08-25T06:09:36;97426.34;;;16.14
19196;BMP280;9730;48.926;11.376;2022-08-25T06:12:02;97417.69;;;16.52
19196;BMP280;9730;48.926;11.376;2022-08-25T06:14:29;97416.03;;;16.41
19196;BMP280;9730;48.926;11.376;2022-08-25T06:16:55;97413.38;;;16.42
19196;BMP280;9730;48.926;11.376;2022-08-25T06:19:22;97414.66;;;16.48
19196;BMP280;9730;48.926;11.376;2022-08-25T06:21:52;97411.56;;;16.32
19196;BMP280;9730;48.926;11.376;2022-08-25T06:24:19;97412.16;;;16.35
19196;BMP280;9730;48.926;11.376;2022-08-25T06:26:47;97408.66;;;16.25
19196;BMP280;9730;48.926;11.376;2022-08-25T06:29:14;97410.53;;;16.34
19196;BMP280;9730;48.926;11.376;2022-08-25T06:31:41;97405.22;;;16.60
19196;BMP280;9730;48.926;11.376;2022-08-25T06:34:08;97415.06;;;16.65
19196;BMP280;9730;48.926;11.376;2022-08-25T06:36:34;97413.91;;;16.92
19196;BMP280;9730;48.926;11.376;2022-08-25T06:39:01;97403.50;;;17.29
19196;BMP280;9730;48.926;11.376;2022-08-25T06:41:27;97395.72;;;18.71
19196;BMP280;9730;48.926;11.376;2022-08-25T06:43:56;97387.50;;;20.08
19196;BMP280;9730;48.926;11.376;2022-08-25T06:46:25;97381.53;;;21.22
19196;BMP280;9730;48.926;11.376;2022-08-25T06:48:53;97366.00;;;22.67
19196;BMP280;9730;48.926;11.376;2022-08-25T06:51:22;97363.91;;;23.73
19196;BMP280;9730;48.926;11.376;2022-08-25T06:53:50;97356.22;;;23.55
19196;BMP280;9730;48.926;11.376;2022-08-25T06:56:17;97365.56;;;22.54
19196;BMP280;9730;48.926;11.376;2022-08-25T06:58:44;97357.28;;;23.45
19196;BMP280;9730;48.926;11.376;2022-08-25T07:01:14;97358.03;;;23.63
19196;BMP280;9730;48.926;11.376;2022-08-25T07:03:41;97357.34;;;23.53
19196;BMP280;9730;48.926;11.376;2022-08-25T07:06:08;97362.44;;;23.45
19196;BMP280;9730;48.926;11.376;2022-08-25T07:08:35;97356.00;;;24.15
19196;BMP280;9730;48.926;11.376;2022-08-25T07:11:04;97350.25;;;24.29
19196;BMP280;9730;48.926;11.376;2022-08-25T07:13:31;97353.56;;;24.87
19196;BMP280;9730;48.926;11.376;2022-08-25T07:15:57;97347.13;;;25.15
19196;BMP280;9730;48.926;11.376;2022-08-25T07:18:25;97331.03;;;25.67
19196;BMP280;9730;48.926;11.376;2022-08-25T07:20:52;97340.53;;;25.04
19196;BMP280;9730;48.926;11.376;2022-08-25T07:23:19;97325.19;;;24.71
19196;BMP280;9730;48.926;11.376;2022-08-25T07:25:45;97334.63;;;25.50
19196;BMP280;9730;48.926;11.376;2022-08-25T07:28:13;97321.22;;;26.00
19196;BMP280;9730;48.926;11.376;2022-08-25T07:30:40;97298.19;;;27.25
19196;BMP280;9730;48.926;11.376;2022-08-25T07:33:07;97296.84;;;27.86
19196;BMP280;9730;48.926;11.376;2022-08-25T07:35:35;97300.75;;;27.25
19196;BMP280;9730;48.926;11.376;2022-08-25T07:38:02;97295.47;;;28.81
19196;BMP280;9730;48.926;11.376;2022-08-25T07:40:31;97295.84;;;28.78
19196;BMP280;9730;48.926;11.376;2022-08-25T07:43:00;97291.75;;;28.69
19196;BMP280;9730;48.926;11.376;2022-08-25T07:45:32;97306.56;;;27.12
19196;BMP280;9730;48.926;11.376;2022-08-25T07:48:02;97306.59;;;27.27
19196;BMP280;9730;48.926;11.376;2022-08-25T07:50:30;97304.00;;;27.41
19196;BMP280;9730;48.926;11.376;2022-08-25T07:52:58;97293.38;;;28.29
19196;BMP280;9730;48.926;11.376;2022-08-25T07:55:26;97293.88;;;28.39
19196;BMP280;9730;48.926;11.376;2022-08-25T07:57:55;97288.13;;;29.79
19196;BMP280;9730;48.926;11.376;2022-08-25T08:00:24;97276.56;;;31.31
19196;BMP280;9730;48.926;11.376;2022-08-25T08:02:51;97301.94;;;28.50
19196;BMP280;9730;48.926;11.376;2022-08-25T08:05:18;97280.19;;;30.85
19196;BMP280;9730;48.926;11.376;2022-08-25T08:07:44;97280.38;;;30.71
19196;BMP280;9730;48.926;11.376;2022-08-25T08:10:13;97306.22;;;27.44
19196;BMP280;9730;48.926;11.376;2022-08-25T08:12:40;97288.88;;;29.06
19196;BMP280;9730;48.926;11.376;2022-08-25T08:15:07;97289.31;;;27.91
19196;BMP280;9730;48.926;11.376;2022-08-25T08:17:34;97293.75;;;28.67
19196;BMP280;9730;48.926;11.376;2022-08-25T08:20:01;97276.59;;;30.93
19196;BMP280;9730;48.926;11.376;2022-08-25T08:22:29;97263.41;;;33.66
19196;BMP280;9730;48.926;11.376;2022-08-25T08:24:55;97287.91;;;30.27
19196;BMP280;9730;48.926;11.376;2022-08-25T08:27:24;97269.03;;;31.73
19196;BMP280;9730;48.926;11.376;2022-08-25T08:29:50;97267.91;;;32.68
19196;BMP280;9730;48.926;11.376;2022-08-25T08:32:18;97273.22;;;31.74
19196;BMP280;9730;48.926;11.376;2022-08-25T08:34:45;97290.41;;;30.67
19196;BMP280;9730;48.926;11.376;2022-08-25T08:37:12;97290.66;;;29.66
19196;BMP280;9730;48.926;11.376;2022-08-25T08:39:39;97282.97;;;29.86
19196;BMP280;9730;48.926;11.376;2022-08-25T08:42:16;97266.00;;;31.07
19196;BMP280;9730;48.926;11.376;2022-08-25T08:45:02;97257.91;;;31.47
19196;BMP280;9730;48.926;11.376;2022-08-25T08:47:39;97253.28;;;31.99
19196;BMP280;9730;48.926;11.376;2022-08-25T08:50:17;97267.88;;;30.21
19196;BMP280;9730;48.926;11.376;2022-08-25T08:52:51;97282.84;;;28.99
19196;BMP280;9730;48.926;11.376;2022-08-25T08:55:25;97277.31;;;28.60
19196;BMP280;9730;48.926;11.376;2022-08-25T08:57:55;97264.84;;;29.65
19196;BMP280;9730;48.926;11.376;2022-08-25T09:00:24;97252.53;;;31.23
19196;BMP280;9730;48.926;11.376;2022-08-25T09:02:55;97262.69;;;30.28
19196;BMP280;9730;48.926;11.376;2022-08-25T09:05:25;97252.78;;;31.71
19196;BMP280;9730;48.926;11.376;2022-08-25T09:07:55;97245.16;;;33.24
19196;BMP280;9730;48.926;11.376;2022-08-25T09:10:23;97247.59;;;32.15
19196;BMP280;9730;48.926;11.376;2022-08-25T09:12:57;97263.47;;;29.69
19196;BMP280;9730;48.926;11.376;2022-08-25T09:15:35;97253.59;;;29.18
19196;BMP280;9730;48.926;11.376;2022-08-25T09:18:25;97255.78;;;28.87
19196;BMP280;9730;48.926;11.376;2022-08-25T09:21:02;97261.22;;;28.09
19196;BMP280;9730;48.926;11.376;2022-08-25T09:23:45;97266.75;;;27.71
19196;BMP280;9730;48.926;11.376;2022-08-25T09:26:24;97256.50;;;29.02
19196;BMP280;9730;48.926;11.376;2022-08-25T09:29:00;97260.78;;;28.89
19196;BMP280;9730;48.926;11.376;2022-08-25T09:31:31;97265.66;;;28.71
19196;BMP280;9730;48.926;11.376;2022-08-25T09:34:01;97247.47;;;30.18
19196;BMP280;9730;48.926;11.376;2022-08-25T09:36:28;97258.38;;;28.87
19196;BMP280;9730;48.926;11.376;2022-08-25T09:38:55;97256.88;;;28.99
19196;BMP280;9730;48.926;11.376;2022-08-25T09:41:39;97262.94;;;28.64
19196;BMP280;9730;48.926;11.376;2022-08-25T09:44:16;97262.03;;;28.09
19196;BMP280;9730;48.926;11.376;2022-08-25T09:46:55;97249.50;;;27.34
19196;BMP280;9730;48.926;11.376;2022-08-25T09:49:35;97252.25;;;27.90
19196;BMP280;9730;48.926;11.376;2022-08-25T09:52:20;97247.44;;;27.44
19196;BMP280;9730;48.926;11.376;2022-08-25T09:54:47;97252.72;;;26.93
19196;BMP280;9730;48.926;11.376;2022-08-25T09:57:30;97258.13;;;26.62
19196;BMP280;9730;48.926;11.376;2022-08-25T10:00:09;97251.41;;;27.55
19196;BMP280;9730;48.926;11.376;2022-08-25T10:02:38;97240.94;;;29.02
19196;BMP280;9730;48.926;11.376;2022-08-25T10:05:18;97231.84;;;29.19
19196;BMP280;9730;48.926;11.376;2022-08-25T10:07:50;97235.69;;;28.27
19196;BMP280;9730;48.926;11.376;2022-08-25T10:10:21;97234.97;;;27.62
19196;BMP280;9730;48.926;11.376;2022-08-25T10:12:49;97235.44;;;27.23
19196;BMP280;9730;48.926;11.376;2022-08-25T10:15:18;97221.50;;;27.38
19196;BMP280;9730;48.926;11.376;2022-08-25T10:17:46;97207.63;;;29.12
19196;BMP280;9730;48.926;11.376;2022-08-25T10:20:17;97207.34;;;29.68
19196;BMP280;9730;48.926;11.376;2022-08-25T10:22:45;97207.06;;;30.16
19196;BMP280;9730;48.926;11.376;2022-08-25T10:25:14;97215.38;;;29.05
19196;BMP280;9730;48.926;11.376;2022-08-25T10:27:46;97214.03;;;29.43
19196;BMP280;9730;48.926;11.376;2022-08-25T10:30:19;97207.69;;;29.18
19196;BMP280;9730;48.926;11.376;2022-08-25T10:33:00;97216.09;;;28.45
19196;BMP280;9730;48.926;11.376;2022-08-25T10:35:44;97206.44;;;28.81
19196;BMP280;9730;48.926;11.376;2022-08-25T10:38:28;97185.88;;;30.25
19196;BMP280;9730;48.926;11.376;2022-08-25T10:41:02;97178.81;;;31.16
19196;BMP280;9730;48.926;11.376;2022-08-25T10:43:37;97173.41;;;31.68
19196;BMP280;9730;48.926;11.376;2022-08-25T10:46:11;97202.25;;;28.59
19196;BMP280;9730;48.926;11.376;2022-08-25T10:49:02;97178.84;;;30.90
19196;BMP280;9730;48.926;11.376;2022-08-25T10:51:45;97172.09;;;31.89
19196;BMP280;9730;48.926;11.376;2022-08-25T10:54:25;97168.25;;;30.14
19196;BMP280;9730;48.926;11.376;2022-08-25T10:57:02;97159.41;;;31.12
19196;BMP280;9730;48.926;11.376;2022-08-25T10:59:47;97159.41;;;31.62
19196;BMP280;9730;48.926;11.376;2022-08-25T11:02:45;97157.53;;;32.37
19196;BMP280;9730;48.926;11.376;2022-08-25T11:05:22;97152.63;;;31.61
19196;BMP280;9730;48.926;11.376;2022-08-25T11:07:52;97154.66;;;31.90
19196;BMP280;9730;48.926;11.376;2022-08-25T11:10:25;97159.06;;;30.12
19196;BMP280;9730;48.926;11.376;2022-08-25T11:12:54;97163.66;;;29.97
19196;BMP280;9730;48.926;11.376;2022-08-25T11:15:26;97158.25;;;28.99
19196;BMP280;9730;48.926;11.376;2022-08-25T11:17:56;97157.66;;;30.03
19196;BMP280;9730;48.926;11.376;2022-08-25T11:20:27;97156.88;;;30.61
19196;BMP280;9730;48.926;11.376;2022-08-25T11:23:07;97154.84;;;31.51
19196;BMP280;9730;48.926;11.376;2022-08-25T11:25:36;97151.84;;;31.91
19196;BMP280;9730;48.926;11.376;2022-08-25T11:28:08;97135.22;;;33.07
19196;BMP280;9730;48.926;11.376;2022-08-25T11:30:36;97133.38;;;33.26
19196;BMP280;9730;48.926;11.376;2022-08-25T11:33:04;97139.38;;;32.24
19196;BMP280;9730;48.926;11.376;2022-08-25T11:35:33;97134.69;;;32.32
19196;BMP280;9730;48.926;11.376;2022-08-25T11:38:16;97143.06;;;30.60
19196;BMP280;9730;48.926;11.376;2022-08-25T11:40:56;97139.66;;;30.21
19196;BMP280;9730;48.926;11.376;2022-08-25T11:43:52;97135.91;;;31.69
19196;BMP280;9730;48.926;11.376;2022-08-25T11:46:36;97121.16;;;32.42
19196;BMP280;9730;48.926;11.376;2022-08-25T11:49:22;97127.75;;;31.59
19196;BMP280;9730;48.926;11.376;2022-08-25T11:51:54;97139.63;;;30.92
19196;BMP280;9730;48.926;11.376;2022-08-25T11:54:23;97151.22;;;29.93
19196;BMP280;9730;48.926;11.376;2022-08-25T11:56:56;97141.81;;;29.85
19196;BMP280;9730;48.926;11.376;2022-08-25T12:00:00;97145.16;;;29.73
19196;BMP280;9730;48.926;11.376;2022-08-25T12:02:35;97146.03;;;29.27
19196;BMP280;9730;48.926;11.376;2022-08-25T12:05:04;97138.38;;;29.65
19196;BMP280;9730;48.926;11.376;2022-08-25T12:07:59;97120.28;;;30.43
19196;BMP280;9730;48.926;11.376;2022-08-25T12:10:55;97134.50;;;29.08
19196;BMP280;9730;48.926;11.376;2022-08-25T12:13:39;97127.31;;;29.51
19196;BMP280;9730;48.926;11.376;2022-08-25T12:16:06;97132.66;;;28.90
19196;BMP280;9730;48.926;11.376;2022-08-25T12:19:21;97121.03;;;29.92
19196;BMP280;9730;48.926;11.376;2022-08-25T12:21:49;97119.25;;;30.05
19196;BMP280;9730;48.926;11.376;2022-08-25T12:24:19;97124.13;;;29.55
19196;BMP280;9730;48.926;11.376;2022-08-25T12:26:57;97114.84;;;29.99
19196;BMP280;9730;48.926;11.376;2022-08-25T12:29:38;97124.66;;;29.97
19196;BMP280;9730;48.926;11.376;2022-08-25T12:32:28;97125.59;;;29.77
19196;BMP280;9730;48.926;11.376;2022-08-25T12:35:28;97122.47;;;29.94
19196;BMP280;9730;48.926;11.376;2022-08-25T12:37:58;97130.25;;;29.35
19196;BMP280;9730;48.926;11.376;2022-08-25T12:40:28;97127.13;;;29.05
19196;BMP280;9730;48.926;11.376;2022-08-25T12:43:03;97126.63;;;28.89
19196;BMP280;9730;48.926;11.376;2022-08-25T12:45:37;97121.56;;;29.61
19196;BMP280;9730;48.926;11.376;2022-08-25T12:48:42;97130.78;;;28.77
19196;BMP280;9730;48.926;11.376;2022-08-25T12:51:19;97126.97;;;28.73
19196;BMP280;9730;48.926;11.376;2022-08-25T12:53:48;97114.19;;;28.78
19196;BMP280;9730;48.926;11.376;2022-08-25T12:56:23;97122.13;;;29.04
19196;BMP280;9730;48.926;11.376;2022-08-25T12:58:55;97126.56;;;28.49
19196;BMP280;9730;48.926;11.376;2022-08-25T13:01:32;97116.91;;;28.37
19196;BMP280;9730;48.926;11.376;2022-08-25T13:04:35;97114.09;;;28.65
19196;BMP280;9730;48.926;11.376;2022-08-25T13:07:15;97126.34;;;28.02
19196;BMP280;9730;48.926;11.376;2022-08-25T13:10:02;97116.34;;;28.14
19196;BMP280;9730;48.926;11.376;2022-08-25T13:12:33;97118.56;;;28.44
19196;BMP280;9730;48.926;11.376;2022-08-25T13:15:04;97119.03;;;27.64
19196;BMP280;9730;48.926;11.376;2022-08-25T13:17:32;97119.03;;;27.85
19196;BMP280;9730;48.926;11.376;2022-08-25T13:20:18;97117.53;;;27.55
19196;BMP280;9730;48.926;11.376;2022-08-25T13:22:48;97103.38;;;27.37
19196;BMP280;9730;48.926;11.376;2022-08-25T13:25:17;97103.69;;;27.63
19196;BMP280;9730;48.926;11.376;2022-08-25T13:27:48;97099.47;;;28.03
19196;BMP280;9730;48.926;11.376;2022-08-25T13:30:24;97081.69;;;28.48
19196;BMP280;9730;48.926;11.376;2022-08-25T13:32:52;97078.91;;;28.50
19196;BMP280;9730;48.926;11.376;2022-08-25T13:35:20;97071.53;;;28.87
19196;BMP280;9730;48.926;11.376;2022-08-25T13:37:49;97075.56;;;28.96
19196;BMP280;9730;48.926;11.376;2022-08-25T13:40:22;97066.63;;;29.05
19196;BMP280;9730;48.926;11.376;2022-08-25T13:42:50;97075.91;;;28.80
19196;BMP280;9730;48.926;11.376;2022-08-25T13:45:18;97068.97;;;28.60
19196;BMP280;9730;48.926;11.376;2022-08-25T13:47:47;97066.34;;;28.87
19196;BMP280;9730;48.926;11.376;2022-08-25T13:50:29;97065.97;;;29.37
19196;BMP280;9730;48.926;11.376;2022-08-25T13:52:59;97067.59;;;28.64
19196;BMP280;9730;48.926;11.376;2022-08-25T13:55:30;97076.44;;;28.42
19196;BMP280;9730;48.926;11.376;2022-08-25T13:57:58;97056.97;;;28.52
19196;BMP280;9730;48.926;11.376;2022-08-25T14:00:30;97062.91;;;28.46
19196;BMP280;9730;48.926;11.376;2022-08-25T14:03:00;97069.72;;;27.99
19196;BMP280;9730;48.926;11.376;2022-08-25T14:05:38;97053.63;;;28.31
19196;BMP280;9730;48.926;11.376;2022-08-25T14:08:28;97054.03;;;28.68
19196;BMP280;9730;48.926;11.376;2022-08-25T14:11:04;97053.19;;;28.55
19196;BMP280;9730;48.926;11.376;2022-08-25T14:13:32;97051.31;;;28.76
19196;BMP280;9730;48.926;11.376;2022-08-25T14:16:06;97055.28;;;28.39
19196;BMP280;9730;48.926;11.376;2022-08-25T14:18:33;97050.31;;;28.43
19196;BMP280;9730;48.926;11.376;2022-08-25T14:21:07;97043.59;;;28.89
19196;BMP280;9730;48.926;11.376;2022-08-25T14:23:36;97043.78;;;28.88
19196;BMP280;9730;48.926;11.376;2022-08-25T14:26:03;97044.34;;;28.77
19196;BMP280;9730;48.926;11.376;2022-08-25T14:28:30;97041.31;;;29.20
19196;BMP280;9730;48.926;11.376;2022-08-25T14:30:59;97031.22;;;29.63